Time;durP1;ratioP1;P1;durP2;ratioP2;P2;SDS_P1;SDS_P2;PMS_P1;PMS_P2;Temp;Humidity;BMP_temperature;BMP_pressure;BME280_temperature;BME280_humidity;BME280_pressure;Samples;Min_cycle;Max_cycle;Signal;HPM_P1;HPM_P2
2022/10/05 00:01:39;;;;;;;20.85;13.98;;;;;;;10.38;100.00;101211.13;5035502;28;20172;-80
2022/10/05 00:04:14;;;;;;;19.50;14.82;;;;;;;10.34;100.00;101209.75;5042089;28;20045;-82
2022/10/05 00:06:41;;;;;;;19.85;15.60;;;;;;;10.22;100.00;101196.00;5019073;28;20056;-81
2022/10/05 00:09:15;;;;;;;21.42;14.73;;;;;;;10.22;100.00;101201.22;5028643;28;20050;-79
2022/10/05 00:11:41;;;;;;;24.80;15.02;;;;;;;10.19;100.00;101201.50;5054023;28;20091;-80
2022/10/05 00:14:17;;;;;;;20.65;15.27;;;;;;;10.16;100.00;101199.16;5041181;28;20453;-79
2022/10/05 00:16:44;;;;;;;22.35;14.82;;;;;;;10.10;100.00;101191.03;5035087;28;20137;-80
2022/10/05 00:19:19;;;;;;;21.75;15.32;;;;;;;10.10;100.00;101198.88;5035498;28;20513;-81
2022/10/05 00:21:45;;;;;;;21.48;14.82;;;;;;;10.05;100.00;101196.66;5070847;23;20071;-80
2022/10/05 00:24:17;;;;;;;24.65;15.25;;;;;;;9.98;100.00;101203.41;5059488;28;20128;-80
2022/10/05 00:26:44;;;;;;;21.57;15.37;;;;;;;9.97;100.00;101196.53;5057866;28;20140;-80
2022/10/05 00:29:20;;;;;;;25.92;15.38;;;;;;;9.98;100.00;101204.22;5059054;28;20052;-81
2022/10/05 00:31:47;;;;;;;19.67;14.75;;;;;;;9.99;100.00;101195.44;5059146;28;20108;-81
2022/10/05 00:34:13;;;;;;;24.27;15.27;;;;;;;9.98;100.00;101191.16;5059074;28;20163;-81
2022/10/05 00:36:40;;;;;;;22.80;15.75;;;;;;;9.97;100.00;101193.91;5058875;28;20128;-81
2022/10/05 00:39:07;;;;;;;28.65;16.45;;;;;;;9.98;100.00;101193.78;5058470;28;20072;-81
2022/10/05 00:41:47;;;;;;;25.92;16.17;;;;;;;9.97;100.00;101189.50;5058517;28;20076;-81
2022/10/05 00:44:36;;;;;;;21.60;16.23;;;;;;;9.93;100.00;101184.69;5059030;28;20132;-81
2022/10/05 00:47:16;;;;;;;26.50;16.55;;;;;;;9.93;100.00;101182.91;5058026;28;20076;-81
2022/10/05 00:50:00;;;;;;;24.15;16.55;;;;;;;9.98;100.00;101183.31;5057519;28;20045;-81
2022/10/05 00:52:37;;;;;;;24.75;17.10;;;;;;;9.95;100.00;101182.78;5058342;28;20492;-81
2022/10/05 00:55:13;;;;;;;23.80;16.75;;;;;;;9.93;100.00;101184.69;5058773;28;20092;-81
2022/10/05 00:57:50;;;;;;;24.73;16.42;;;;;;;9.92;100.00;101183.06;5057025;28;20044;-81
2022/10/05 01:00:22;;;;;;;27.85;17.40;;;;;;;9.91;100.00;101189.25;5059839;28;20389;-81
2022/10/05 01:02:57;;;;;;;26.85;17.95;;;;;;;9.92;100.00;101188.31;5061593;28;20113;-80
2022/10/05 01:05:43;;;;;;;28.42;16.63;;;;;;;9.93;100.00;101189.91;5061172;28;20045;-81
2022/10/05 01:08:23;;;;;;;28.70;17.90;;;;;;;9.88;100.00;101182.53;5058180;28;20132;-81
2022/10/05 01:11:02;;;;;;;29.65;17.08;;;;;;;9.91;100.00;101184.88;5056241;28;20056;-80
2022/10/05 01:13:39;;;;;;;31.15;17.75;;;;;;;9.91;100.00;101184.03;5056087;28;20111;-80
2022/10/05 01:16:09;;;;;;;27.65;18.02;;;;;;;9.90;100.00;101180.59;5056123;28;20128;-80
2022/10/05 01:18:41;;;;;;;28.92;17.95;;;;;;;9.89;100.00;101185.97;5055680;28;20055;-80
2022/10/05 01:21:17;;;;;;;25.63;17.53;;;;;;;9.89;100.00;101196.41;5059240;28;20136;-80
2022/10/05 01:24:25;;;;;;;33.97;17.80;;;;;;;9.85;100.00;101184.59;5060925;28;20175;-80
2022/10/05 01:27:19;;;;;;;27.80;18.60;;;;;;;9.80;100.00;101185.00;5059056;28;20078;-81
2022/10/05 01:29:54;;;;;;;28.20;17.42;;;;;;;9.81;100.00;101177.97;5050515;28;20135;-82
2022/10/05 01:32:29;;;;;;;26.95;17.13;;;;;;;9.80;100.00;101184.16;5060476;28;20142;-81
2022/10/05 01:35:06;;;;;;;25.85;18.38;;;;;;;9.77;100.00;101187.06;5062374;28;20052;-82
2022/10/05 01:37:42;;;;;;;27.95;18.77;;;;;;;9.76;100.00;101183.63;5063621;28;20140;-82
2022/10/05 01:40:18;;;;;;;34.55;17.95;;;;;;;9.77;100.00;101187.88;5062785;28;20056;-82
2022/10/05 01:42:58;;;;;;;24.45;17.02;;;;;;;9.68;100.00;101182.66;5062261;28;20151;-82
2022/10/05 01:45:35;;;;;;;32.58;18.35;;;;;;;9.65;100.00;101181.97;5061063;28;20120;-82
2022/10/05 01:48:09;;;;;;;29.73;18.05;;;;;;;9.59;100.00;101177.28;5060507;28;20057;-82
2022/10/05 01:50:47;;;;;;;26.73;18.58;;;;;;;9.59;100.00;101181.66;5060621;28;20044;-82
2022/10/05 01:53:27;;;;;;;28.85;17.98;;;;;;;9.55;100.00;101178.50;5059120;28;20140;-81
2022/10/05 01:56:06;;;;;;;24.02;18.17;;;;;;;9.54;100.00;101169.00;5058457;28;20059;-81
2022/10/05 01:58:42;;;;;;;29.20;18.88;;;;;;;9.56;100.00;101168.88;5058230;28;20139;-82
2022/10/05 02:01:17;;;;;;;32.13;19.25;;;;;;;9.55;100.00;101162.00;5058159;28;20052;-81
2022/10/05 02:03:49;;;;;;;27.58;17.75;;;;;;;9.61;100.00;101169.28;5058496;28;20079;-80
2022/10/05 02:06:20;;;;;;;26.77;18.42;;;;;;;9.57;100.00;101168.75;5058384;28;20112;-80
2022/10/05 02:08:52;;;;;;;26.35;17.65;;;;;;;9.57;100.00;101157.47;5058249;28;20055;-80
2022/10/05 02:11:19;;;;;;;28.83;18.23;;;;;;;9.57;100.00;101155.69;5059405;28;20075;-80
2022/10/05 02:13:50;;;;;;;28.33;17.90;;;;;;;9.53;100.00;101150.88;5058929;28;20559;-79
2022/10/05 02:16:24;;;;;;;26.95;17.55;;;;;;;9.52;100.00;101150.03;5059161;28;20113;-80
2022/10/05 02:18:55;;;;;;;27.63;18.00;;;;;;;9.51;100.00;101148.38;5060650;28;20136;-81
2022/10/05 02:21:23;;;;;;;28.45;17.77;;;;;;;9.52;100.00;101147.41;5062138;28;20131;-81
2022/10/05 02:23:55;;;;;;;27.55;18.08;;;;;;;9.46;100.00;101158.41;5061090;28;20108;-82
2022/10/05 02:26:23;;;;;;;28.25;18.45;;;;;;;9.52;100.00;101159.66;5060051;28;20475;-82
2022/10/05 02:28:54;;;;;;;23.92;17.42;;;;;;;9.42;100.00;101151.84;5059934;28;20132;-81
2022/10/05 02:31:26;;;;;;;31.65;17.92;;;;;;;9.39;100.00;101157.34;5059502;28;20113;-81
2022/10/05 02:34:33;;;;;;;28.77;18.00;;;;;;;9.36;100.00;101160.22;5059596;28;20079;-82
2022/10/05 02:37:18;;;;;;;25.83;18.67;;;;;;;9.32;100.00;101164.06;5055584;28;20132;-82
2022/10/05 02:39:53;;;;;;;24.95;17.55;;;;;;;9.39;100.00;101161.72;5060951;28;20104;-81
2022/10/05 02:42:26;;;;;;;23.95;16.88;;;;;;;9.39;100.00;101154.72;5060850;28;20045;-80
2022/10/05 02:45:03;;;;;;;28.23;18.85;;;;;;;9.37;100.00;101155.81;5061573;28;20113;-81
2022/10/05 02:47:37;;;;;;;28.15;18.98;;;;;;;9.36;100.00;101148.94;5058988;28;20466;-82
2022/10/05 02:50:11;;;;;;;26.60;18.63;;;;;;;9.34;100.00;101154.28;5060257;28;20136;-81
2022/10/05 02:52:52;;;;;;;28.08;19.20;;;;;;;9.35;100.00;101153.34;5060733;28;20591;-81
2022/10/05 02:55:25;;;;;;;26.13;18.17;;;;;;;9.41;100.00;101150.19;5060331;28;20474;-81
2022/10/05 02:57:57;;;;;;;28.98;18.42;;;;;;;9.46;100.00;101154.97;5061065;28;20458;-80
2022/10/05 03:00:25;;;;;;;;;;;;;;;9.49;100.00;101144.25;5063298;28;20045;-81
2022/10/05 03:03:01;;;;;;;34.60;18.45;;;;;;;9.49;100.00;101150.31;5064534;28;19932;-81
2022/10/05 03:05:35;;;;;;;25.80;17.23;;;;;;;9.48;100.00;101140.81;5064306;28;20326;-80
2022/10/05 03:08:07;;;;;;;24.80;17.60;;;;;;;9.54;100.00;101137.66;5063307;28;20049;-80
2022/10/05 03:10:43;;;;;;;28.02;17.15;;;;;;;9.55;100.00;101130.66;5063178;28;20120;-81
2022/10/05 03:13:21;;;;;;;28.83;17.60;;;;;;;9.65;100.00;101141.94;5062575;28;20049;-82
2022/10/05 03:16:06;;;;;;;29.90;17.73;;;;;;;9.66;100.00;101135.75;5059609;28;20466;-80
2022/10/05 03:18:46;;;;;;;29.38;17.20;;;;;;;9.67;100.00;101128.72;5060316;28;20109;-80
2022/10/05 03:21:26;;;;;;;29.25;16.83;;;;;;;9.71;100.00;101130.94;5060411;28;20120;-80
2022/10/05 03:24:10;;;;;;;24.95;17.75;;;;;;;9.73;100.00;101130.78;5058287;28;20051;-80
2022/10/05 03:26:48;;;;;;;24.98;16.75;;;;;;;9.72;100.00;101126.53;5058517;28;20135;-80
2022/10/05 03:29:29;;;;;;;28.23;17.95;;;;;;;9.74;100.00;101114.97;5038052;28;20504;-79
2022/10/05 03:32:00;;;;;;;23.80;16.30;;;;;;;9.73;100.00;101115.13;5056450;28;20123;-80
2022/10/05 03:34:37;;;;;;;24.30;16.98;;;;;;;9.70;100.00;101118.84;5060002;28;20132;-80
2022/10/05 03:37:11;;;;;;;26.17;16.05;;;;;;;9.69;100.00;101118.97;5059073;28;20112;-79
2022/10/05 03:39:44;;;;;;;24.88;16.65;;;;;;;9.63;100.00;101115.94;5059806;28;20125;-79
2022/10/05 03:42:23;;;;;;;24.55;15.90;;;;;;;9.67;100.00;101116.50;5060028;28;20136;-79
2022/10/05 03:44:56;;;;;;;23.30;16.70;;;;;;;9.64;100.00;101120.22;5060518;28;20116;-78
2022/10/05 03:47:32;;;;;;;23.48;17.10;;;;;;;9.62;100.00;101116.91;5063894;28;20049;-80
2022/10/05 03:50:16;;;;;;;25.23;16.98;;;;;;;9.62;100.00;101124.75;5059478;28;20406;-79
2022/10/05 03:52:48;;;;;;;25.70;15.90;;;;;;;9.64;100.00;101117.59;5056907;28;20053;-79
2022/10/05 03:55:23;;;;;;;28.42;17.48;;;;;;;9.64;100.00;101124.59;5056183;28;20135;-78
2022/10/05 03:57:54;;;;;;;21.73;16.23;;;;;;;9.67;100.00;101126.13;5055314;28;20136;-77
2022/10/05 04:00:24;;;;;;;24.52;16.00;;;;;;;9.64;100.00;101109.75;5054482;28;20045;-80
2022/10/05 04:02:55;;;;;;;25.98;16.42;;;;;;;9.58;100.00;101097.25;5047087;28;20102;-80
2022/10/05 04:05:27;;;;;;;25.92;17.38;;;;;;;9.63;100.00;101097.66;5054482;28;20051;-80
2022/10/05 04:07:59;;;;;;;24.70;16.58;;;;;;;9.59;100.00;101093.66;5053980;28;20052;-81
2022/10/05 04:10:32;;;;;;;26.52;15.82;;;;;;;9.60;100.00;101095.31;5067634;28;20055;-81
2022/10/05 04:13:04;;;;;;;24.25;16.30;;;;;;;9.60;100.00;101090.09;5075817;28;20052;-81
2022/10/05 04:15:38;;;;;;;24.92;16.20;;;;;;;9.66;100.00;101099.16;5075896;28;20127;-80
2022/10/05 04:18:17;;;;;;;25.67;15.88;;;;;;;9.78;100.00;101092.00;5076417;28;20073;-80
2022/10/05 04:20:50;;;;;;;23.73;14.93;;;;;;;9.92;100.00;101091.59;5076300;28;20052;-81
2022/10/05 04:23:25;;;;;;;23.25;15.52;;;;;;;9.98;100.00;101091.81;5076391;28;20052;-81
2022/10/05 04:25:59;;;;;;;19.77;15.55;;;;;;;10.03;100.00;101096.63;5064601;28;20045;-80
2022/10/05 04:28:34;;;;;;;22.95;15.95;;;;;;;10.05;100.00;101089.47;5058865;28;20100;-81
2022/10/05 04:31:05;;;;;;;24.50;16.90;;;;;;;10.04;100.00;101098.28;5058003;28;20423;-80
2022/10/05 04:33:32;;;;;;;23.35;16.60;;;;;;;10.06;100.00;101101.56;5058445;28;20052;-82
2022/10/05 04:36:11;;;;;;;23.05;16.70;;;;;;;10.08;100.00;101094.41;5055070;28;20143;-81
2022/10/05 04:38:52;;;;;;;24.38;16.88;;;;;;;10.14;100.00;101093.03;5055991;28;20091;-80
2022/10/05 04:41:33;;;;;;;31.42;18.02;;;;;;;10.17;100.00;101097.97;5056227;28;20124;-80
2022/10/05 04:44:16;;;;;;;24.95;16.63;;;;;;;10.26;100.00;101091.94;5056502;28;20087;-81
2022/10/05 04:47:02;;;;;;;25.73;16.38;;;;;;;10.25;100.00;101090.28;5055422;28;20133;-81
2022/10/05 04:49:54;;;;;;;30.52;16.95;;;;;;;10.28;100.00;101095.22;5056389;28;20049;-79
2022/10/05 04:52:29;;;;;;;27.25;16.80;;;;;;;10.25;100.00;101098.94;5057753;28;20059;-80
2022/10/05 04:55:04;;;;;;;24.98;16.13;;;;;;;10.30;100.00;101103.75;5057798;28;20087;-80
2022/10/05 04:57:41;;;;;;;22.75;16.02;;;;;;;10.29;100.00;101102.94;5056833;28;20071;-80
2022/10/05 05:00:21;;;;;;;22.17;16.30;;;;;;;10.30;100.00;101104.59;5055386;28;20582;-80
2022/10/05 05:03:15;;;;;;;23.77;15.95;;;;;;;10.35;100.00;101105.94;5040061;28;20049;-81
2022/10/05 05:05:52;;;;;;;23.20;15.52;;;;;;;10.36;100.00;101097.13;5039840;28;20399;-81
2022/10/05 05:08:41;;;;;;;24.38;15.90;;;;;;;10.36;100.00;101097.97;5040871;28;20053;-81
2022/10/05 05:11:21;;;;;;;19.92;15.20;;;;;;;10.38;100.00;101095.19;5041955;28;20100;-81
2022/10/05 05:14:32;;;;;;;21.98;15.52;;;;;;;10.36;100.00;101089.28;5057994;28;20049;-81
2022/10/05 05:17:10;;;;;;;22.95;14.95;;;;;;;10.35;100.00;101096.31;4980129;28;20417;-81
2022/10/05 05:19:46;;;;;;;26.63;15.18;;;;;;;10.32;100.00;101091.38;4979003;28;20106;-80
2022/10/05 05:22:24;;;;;;;28.88;14.98;;;;;;;10.32;100.00;101101.00;5027394;28;20140;-80
2022/10/05 05:25:09;;;;;;;21.95;15.15;;;;;;;10.26;100.00;101097.16;5061305;28;20053;-81
2022/10/05 05:27:41;;;;;;;22.92;15.35;;;;;;;10.24;100.00;101094.69;5062335;28;20106;-81
2022/10/05 05:30:19;;;;;;;20.77;15.80;;;;;;;10.28;100.00;101100.47;5057987;28;20083;-81
2022/10/05 05:32:58;;;;;;;22.25;15.40;;;;;;;10.27;100.00;101102.25;5058240;28;20049;-81
2022/10/05 05:35:46;;;;;;;19.50;14.77;;;;;;;10.32;100.00;101107.06;5058226;28;20073;-81
2022/10/05 05:38:24;;;;;;;25.58;15.23;;;;;;;10.30;100.00;101094.13;5056806;28;20132;-80
2022/10/05 05:41:06;;;;;;;19.52;15.32;;;;;;;10.35;100.00;101101.53;5057505;28;20076;-80
2022/10/05 05:43:43;;;;;;;22.40;15.27;;;;;;;10.37;100.00;101088.31;5057801;28;20539;-82
2022/10/05 05:46:16;;;;;;;23.75;14.27;;;;;;;10.39;100.00;101097.66;5059251;28;20080;-81
2022/10/05 05:48:45;;;;;;;19.55;14.77;;;;;;;10.42;100.00;101099.16;5058748;28;20431;-81
2022/10/05 05:51:16;;;;;;;19.58;14.18;;;;;;;10.43;100.00;101092.94;5055315;28;20048;-80
2022/10/05 05:53:45;;;;;;;21.63;14.32;;;;;;;10.46;100.00;101095.28;5055940;28;20045;-82
2022/10/05 05:56:13;;;;;;;19.42;13.50;;;;;;;10.49;100.00;101097.63;5059032;28;20144;-82
2022/10/05 05:58:46;;;;;;;21.23;14.23;;;;;;;10.51;100.00;101103.53;5056475;28;20120;-81
2022/10/05 06:01:23;;;;;;;20.25;14.63;;;;;;;10.55;100.00;101097.88;5055832;28;20527;-80
2022/10/05 06:03:54;;;;;;;22.35;14.48;;;;;;;10.57;100.00;101105.56;5054279;28;20056;-79
2022/10/05 06:06:25;;;;;;;21.42;13.27;;;;;;;10.60;100.00;101100.03;5053541;28;20131;-80
2022/10/05 06:08:56;;;;;;;20.05;14.20;;;;;;;10.63;100.00;101110.22;5047212;28;20045;-80
2022/10/05 06:11:25;;;;;;;19.67;15.00;;;;;;;10.64;100.00;101106.66;5058548;28;20045;-80
2022/10/05 06:13:53;;;;;;;22.85;14.38;;;;;;;10.66;100.00;101104.72;5060011;28;20131;-81
2022/10/05 06:16:26;;;;;;;26.17;14.60;;;;;;;10.72;100.00;101111.97;5066177;28;20056;-80
2022/10/05 06:18:58;;;;;;;21.83;14.27;;;;;;;10.76;100.00;101107.28;5062976;28;20109;-79
2022/10/05 06:21:32;;;;;;;27.20;14.93;;;;;;;10.90;100.00;101114.63;5076479;22;20132;-80
2022/10/05 06:24:04;;;;;;;19.90;14.50;;;;;;;10.95;100.00;101105.38;5062212;28;20083;-80
2022/10/05 06:26:56;;;;;;;20.60;14.13;;;;;;;11.00;100.00;101104.94;5062166;28;20127;-81
2022/10/05 06:29:31;;;;;;;21.08;14.88;;;;;;;11.10;100.00;101112.72;5060614;28;20503;-79
2022/10/05 06:32:06;;;;;;;15.88;13.00;;;;;;;11.25;100.00;101106.03;5061068;28;20105;-80
2022/10/05 06:34:54;;;;;;;18.75;12.90;;;;;;;11.29;100.00;101102.97;5062121;28;20136;-78
2022/10/05 06:37:31;;;;;;;19.35;13.00;;;;;;;11.40;100.00;101099.25;5061888;28;20048;-80
2022/10/05 06:40:09;;;;;;;16.08;12.65;;;;;;;11.44;100.00;101105.84;5060996;28;20045;-79
2022/10/05 06:42:46;;;;;;;17.55;12.00;;;;;;;11.59;100.00;101108.78;5042056;28;20127;-79
2022/10/05 06:45:23;;;;;;;17.73;11.65;;;;;;;11.61;100.00;101106.84;5055142;28;20113;-79
2022/10/05 06:47:55;;;;;;;21.02;12.23;;;;;;;11.63;100.00;101113.56;5036445;28;20491;-77
2022/10/05 06:50:31;;;;;;;17.17;11.95;;;;;;;11.63;100.00;101110.94;5034336;28;20132;-79
2022/10/05 06:53:15;;;;;;;15.57;11.45;;;;;;;11.74;100.00;101117.75;5036013;28;20049;-79
2022/10/05 06:55:49;;;;;;;18.60;11.52;;;;;;;11.76;100.00;101094.84;5040812;28;20046;-79
2022/10/05 06:58:41;;;;;;;13.88;11.50;;;;;;;11.87;100.00;101104.28;5052430;28;20072;-79
2022/10/05 07:01:14;;;;;;;14.85;11.93;;;;;;;11.94;100.00;101108.75;5054169;28;20511;-79
2022/10/05 07:03:52;;;;;;;16.20;11.00;;;;;;;11.99;100.00;101108.28;5061221;28;20049;-80
2022/10/05 07:06:26;;;;;;;14.75;10.95;;;;;;;12.08;100.00;101102.13;5060566;28;20128;-79
2022/10/05 07:09:07;;;;;;;20.60;11.77;;;;;;;12.17;100.00;101098.59;5058011;28;20148;-78
2022/10/05 07:11:51;;;;;;;14.10;11.10;;;;;;;12.28;100.00;101103.56;5055046;28;20525;-79
2022/10/05 07:14:30;;;;;;;19.52;11.50;;;;;;;12.24;100.00;101099.63;5059439;28;20112;-80
2022/10/05 07:17:24;;;;;;;17.85;10.98;;;;;;;12.30;100.00;101098.97;5058787;28;20124;-79
2022/10/05 07:20:02;;;;;;;14.43;11.30;;;;;;;12.30;100.00;101112.09;5059777;28;20063;-79
2022/10/05 07:22:55;;;;;;;15.07;10.95;;;;;;;12.34;100.00;101093.41;5059663;28;20141;-79
2022/10/05 07:25:28;;;;;;;14.68;10.70;;;;;;;12.44;100.00;101094.13;5058759;28;20458;-79
2022/10/05 07:28:03;;;;;;;17.02;10.73;;;;;;;12.57;100.00;101112.91;5059710;28;20104;-79
2022/10/05 07:30:37;;;;;;;13.40;10.27;;;;;;;12.67;100.00;101100.47;5061226;28;20057;-79
2022/10/05 07:33:14;;;;;;;12.70;10.88;;;;;;;12.60;100.00;101105.53;5060261;28;20048;-79
2022/10/05 07:38:42;;;;;;;14.55;10.18;;;;;;;12.82;100.00;101106.75;5057165;28;20060;-78
2022/10/05 07:41:18;;;;;;;13.35;10.30;;;;;;;12.83;100.00;101104.94;5058327;28;20065;-80
2022/10/05 07:43:56;;;;;;;12.57;10.18;;;;;;;12.83;100.00;101108.41;5059859;28;20508;-81
2022/10/05 07:46:31;;;;;;;20.50;10.43;;;;;;;12.79;100.00;101104.44;5058811;28;20044;-80
2022/10/05 07:49:05;;;;;;;15.98;10.35;;;;;;;12.89;100.00;101120.91;5059798;28;20113;-81
2022/10/05 07:51:39;;;;;;;15.57;10.50;;;;;;;12.90;100.00;101108.59;5059504;28;20122;-81
2022/10/05 07:54:16;;;;;;;12.40;10.27;;;;;;;13.00;100.00;101121.59;5059976;28;20044;-80
2022/10/05 07:56:45;;;;;;;17.05;10.07;;;;;;;13.02;100.00;101123.06;5058996;28;20060;-81
2022/10/05 07:59:20;;;;;;;14.95;10.90;;;;;;;12.92;100.00;101115.31;5059429;28;20072;-80
2022/10/05 08:01:51;;;;;;;16.40;11.23;;;;;;;12.96;100.00;101118.47;5059761;28;20101;-80
2022/10/05 08:04:21;;;;;;;14.02;11.20;;;;;;;12.99;100.00;101119.94;5060425;28;20132;-81
2022/10/05 08:06:52;;;;;;;16.48;11.45;;;;;;;13.02;100.00;101122.25;5059689;28;20468;-81
2022/10/05 08:09:33;;;;;;;14.80;11.32;;;;;;;13.16;100.00;101119.88;5059115;28;20109;-80
2022/10/05 08:12:09;;;;;;;20.25;11.43;;;;;;;13.09;100.00;101120.63;5060476;28;20045;-81
2022/10/05 08:14:43;;;;;;;20.77;12.13;;;;;;;13.17;100.00;101121.50;5060070;28;20048;-81
2022/10/05 08:17:18;;;;;;;14.90;12.32;;;;;;;13.25;100.00;101126.75;5059582;28;20052;-81
2022/10/05 08:19:50;;;;;;;15.68;11.68;;;;;;;13.25;100.00;101120.69;5059207;28;20056;-80
2022/10/05 08:22:29;;;;;;;19.65;11.48;;;;;;;13.36;100.00;101111.66;5059463;28;20072;-80
2022/10/05 08:25:00;;;;;;;17.58;11.80;;;;;;;13.32;100.00;101110.34;5057938;28;20048;-81
2022/10/05 08:27:35;;;;;;;16.88;11.80;;;;;;;13.50;100.00;101127.63;5060217;28;20135;-79
2022/10/05 08:30:05;;;;;;;13.95;10.77;;;;;;;13.65;100.00;101127.00;5058649;28;20507;-81
2022/10/05 08:32:37;;;;;;;14.25;10.63;;;;;;;13.75;98.82;101130.25;5060210;28;20105;-81
2022/10/05 08:35:23;;;;;;;17.00;11.13;;;;;;;13.76;98.51;101124.84;5060101;28;20108;-81
2022/10/05 08:37:55;;;;;;;13.45;9.98;;;;;;;13.91;98.52;101125.00;5060792;28;20586;-80
2022/10/05 08:40:59;;;;;;;13.88;10.52;;;;;;;14.06;97.24;101112.81;5060684;28;20045;-80
2022/10/05 08:44:05;;;;;;;12.57;10.02;;;;;;;14.16;96.98;101126.63;5059670;28;20487;-81
2022/10/05 08:46:49;;;;;;;14.02;9.27;;;;;;;14.25;96.75;101117.72;5056257;28;20135;-80
2022/10/05 08:49:56;;;;;;;12.20;9.15;;;;;;;14.55;95.94;101115.38;5056479;28;20100;-80
2022/10/05 08:52:29;;;;;;;13.52;9.10;;;;;;;14.74;95.03;101120.22;5058720;28;20127;-81
2022/10/05 08:55:27;;;;;;;14.30;9.63;;;;;;;14.78;93.85;101118.88;5058763;28;20102;-80
2022/10/05 08:58:26;;;;;;;11.90;9.10;;;;;;;14.56;94.39;101106.47;5058157;28;20057;-81
2022/10/05 09:01:01;;;;;;;11.85;9.13;;;;;;;14.67;94.13;101106.06;5053647;28;20072;-81
2022/10/05 09:04:26;;;;;;;15.20;9.73;;;;;;;14.99;92.90;101110.41;5056277;28;20049;-79
2022/10/05 09:07:33;;;;;;;13.32;9.27;;;;;;;14.87;92.78;101099.41;5014352;28;20054;-82
2022/10/05 09:10:38;;;;;;;13.45;8.70;;;;;;;14.93;93.05;101108.44;4981114;28;20071;-80
2022/10/05 09:13:30;;;;;;;12.70;8.60;;;;;;;15.06;92.17;101100.81;5045279;28;20060;-82
2022/10/05 09:16:23;;;;;;;15.73;8.80;;;;;;;15.38;91.63;101099.75;5057588;28;20565;-81
2022/10/05 09:19:07;;;;;;;11.73;8.75;;;;;;;15.46;91.81;101106.78;5056777;28;20045;-79
2022/10/05 09:21:56;;;;;;;14.68;9.00;;;;;;;15.19;90.74;101102.84;5053659;28;20084;-80
2022/10/05 09:24:28;;;;;;;11.45;8.32;;;;;;;15.52;90.63;101099.00;5056540;28;20049;-78
2022/10/05 09:27:11;;;;;;;11.85;8.25;;;;;;;15.49;89.96;101103.81;5054895;28;20134;-80
2022/10/05 09:30:10;;;;;;;14.10;7.53;;;;;;;15.60;88.93;101096.31;5055591;28;20045;-80
2022/10/05 09:33:12;;;;;;;11.57;7.38;;;;;;;15.84;88.39;101095.28;5056201;28;20071;-80
2022/10/05 09:36:06;;;;;;;13.10;7.85;;;;;;;15.94;88.43;101095.03;5035371;28;20550;-80
2022/10/05 09:38:46;;;;;;;9.77;7.25;;;;;;;16.07;87.70;101087.28;5037381;28;20068;-81
2022/10/05 09:41:45;;;;;;;13.13;7.53;;;;;;;16.45;87.36;101084.59;5047555;28;20104;-81
2022/10/05 09:44:52;;;;;;;13.68;7.93;;;;;;;16.18;86.50;101076.28;5050406;28;20053;-80
2022/10/05 09:47:40;;;;;;;9.52;6.75;;;;;;;16.48;86.87;101073.66;5061205;28;20116;-80
2022/10/05 09:50:38;;;;;;;12.95;7.20;;;;;;;16.62;84.67;101070.16;5060255;28;20057;-80
2022/10/05 09:53:22;;;;;;;9.75;7.35;;;;;;;16.64;85.42;101070.81;5056493;28;20506;-80
2022/10/05 09:56:14;;;;;;;9.20;6.93;;;;;;;17.04;84.08;101063.34;5061351;28;20468;-81
2022/10/05 09:59:06;;;;;;;20.37;7.57;;;;;;;17.24;82.30;101051.13;5062136;28;20472;-82
2022/10/05 10:01:57;;;;;;;11.73;6.68;;;;;;;17.55;82.04;101061.38;5061211;28;20318;-82
2022/10/05 10:04:34;;;;;;;11.20;6.88;;;;;;;17.77;80.56;101068.31;5061933;28;20135;-83
2022/10/05 10:07:26;;;;;;;11.13;6.60;;;;;;;17.44;81.78;101061.91;5059768;28;20431;-82
2022/10/05 10:10:27;;;;;;;14.85;7.60;;;;;;;16.94;82.14;101050.44;5060012;28;20488;-81
2022/10/05 10:13:13;;;;;;;9.38;6.78;;;;;;;17.53;82.40;101050.97;5061659;28;20079;-82
2022/10/05 10:16:18;;;;;;;9.75;6.72;;;;;;;17.87;79.99;101052.09;5062151;28;20079;-81
2022/10/05 10:19:12;;;;;;;9.63;6.70;;;;;;;18.30;79.79;101062.53;5040004;28;20099;-81
2022/10/05 10:21:56;;;;;;;7.63;5.63;;;;;;;18.59;78.45;101062.25;5071411;28;20073;-80
2022/10/05 10:24:42;;;;;;;11.50;6.00;;;;;;;18.71;77.03;101062.53;5071513;28;20069;-80
2022/10/05 10:27:23;;;;;;;9.98;6.28;;;;;;;18.75;77.80;101053.97;5070505;28;20085;-81
2022/10/05 10:30:03;;;;;;;11.27;5.65;;;;;;;19.12;76.96;101057.94;5070578;28;20151;-81
2022/10/05 10:33:10;;;;;;;6.45;5.40;;;;;;;19.32;75.08;101059.81;5069350;28;20041;-82
2022/10/05 10:35:42;;;;;;;6.70;5.63;;;;;;;18.38;77.46;101044.66;5071749;28;20060;-82
2022/10/05 10:38:38;;;;;;;8.07;5.90;;;;;;;17.89;78.47;101036.84;5070218;28;20076;-81
2022/10/05 10:41:33;;;;;;;7.90;5.97;;;;;;;18.02;79.76;101028.94;5060059;28;20045;-82
2022/10/05 10:44:28;;;;;;;7.90;5.85;;;;;;;18.33;79.36;101017.09;5061565;28;20140;-82
2022/10/05 10:47:22;;;;;;;6.97;5.35;;;;;;;18.26;77.85;101018.91;5061004;28;20063;-81
2022/10/05 10:50:11;;;;;;;7.28;5.18;;;;;;;18.44;78.30;101021.81;5060232;28;20056;-82
2022/10/05 10:52:56;;;;;;;11.40;4.78;;;;;;;18.95;77.70;101019.53;5059590;28;20079;-81
2022/10/05 10:55:34;;;;;;;12.80;4.75;;;;;;;19.09;76.00;101023.03;5060519;28;20075;-82
2022/10/05 10:58:33;;;;;;;10.80;4.43;;;;;;;19.32;75.18;101012.06;5059467;28;20526;-81
2022/10/05 11:01:11;;;;;;;14.00;5.85;;;;;;;18.98;76.63;100999.75;5051876;28;20470;-81
2022/10/05 11:04:19;;;;;;;9.20;5.70;;;;;;;19.14;77.41;100996.72;5060497;28;20048;-82
2022/10/05 11:07:11;;;;;;;7.00;4.82;;;;;;;19.13;76.61;100997.75;5060770;28;20403;-82
2022/10/05 11:10:15;;;;;;;10.15;4.80;;;;;;;18.90;76.12;100993.63;5056967;28;20137;-80
2022/10/05 11:13:26;;;;;;;5.78;4.50;;;;;;;19.11;74.91;100990.00;5049245;28;20136;-82
2022/10/05 11:16:07;;;;;;;10.45;4.82;;;;;;;19.10;74.49;100984.88;5059618;28;20132;-80
2022/10/05 11:18:52;;;;;;;6.50;4.50;;;;;;;19.41;75.34;100971.81;5059709;28;20053;-81
2022/10/05 11:21:35;;;;;;;6.80;4.63;;;;;;;19.28;74.68;100965.72;5059906;28;20099;-81
2022/10/05 11:24:27;;;;;;;;;;;;;;;19.17;74.47;100967.16;5059864;28;20049;-82
2022/10/05 11:27:12;;;;;;;6.60;4.93;;;;;;;19.40;75.12;100956.09;5059672;28;19924;-82
2022/10/05 11:29:58;;;;;;;7.28;5.15;;;;;;;19.05;75.32;100955.50;5060134;28;20071;-81
2022/10/05 11:32:57;;;;;;;6.60;4.80;;;;;;;19.37;75.97;100948.56;5059748;28;20087;-81
2022/10/05 11:35:49;;;;;;;7.18;4.43;;;;;;;19.49;74.41;100939.75;5060769;28;20507;-80
2022/10/05 11:38:31;;;;;;;5.25;4.10;;;;;;;19.70;73.99;100935.25;5059270;28;20083;-81
2022/10/05 11:41:24;;;;;;;8.35;4.00;;;;;;;19.79;71.90;100915.44;5062732;28;20147;-81
2022/10/05 11:44:35;;;;;;;8.38;3.95;;;;;;;19.94;71.59;100918.63;5042787;28;20478;-81
2022/10/05 11:47:11;;;;;;;4.38;3.35;;;;;;;19.86;71.37;100902.91;5067400;28;20053;-80
2022/10/05 11:49:45;;;;;;;8.55;3.67;;;;;;;20.18;71.38;100906.47;5063937;28;20084;-80
2022/10/05 11:52:22;;;;;;;5.80;3.15;;;;;;;20.30;69.52;100896.00;5065561;28;20131;-80
2022/10/05 11:55:08;;;;;;;4.68;3.17;;;;;;;20.35;68.94;100885.50;5066938;28;20117;-81
2022/10/05 11:57:42;;;;;;;3.35;3.03;;;;;;;20.48;69.10;100888.94;5066390;28;20484;-80
2022/10/05 12:00:17;;;;;;;7.53;3.63;;;;;;;20.49;70.43;100887.09;5066304;28;20083;-81
2022/10/05 12:03:12;;;;;;;5.70;3.40;;;;;;;20.57;70.04;100870.88;5065705;28;20048;-79
2022/10/05 12:05:52;;;;;;;3.65;3.28;;;;;;;20.70;68.20;100876.13;5061584;28;20049;-81
2022/10/05 12:08:27;;;;;;;4.95;3.40;;;;;;;20.79;67.70;100856.22;5059272;28;20095;-80
2022/10/05 12:11:04;;;;;;;8.50;3.70;;;;;;;20.64;67.39;100847.72;5059235;28;20151;-80